Roopville, Georgia
Current Conditions -  °F | °C
As of 11:35 AM on Tuesday 21 Oct 2014 (Local Time) from KCTJ Reporting Station
Clear Clear  
Wind Chill: 20°   Ceiling: Unl
Heat Index: 20°   Visibility: 10mi
Dew Point: 12°   Wind: 3mph
Humidity: 60%   Direction: 290°WNW
Pressure: 30.06"   Gusts: NA
Location:  33.46°N, 85.13°W
Report Text: KCTJ 211535Z AUTO 29003KT 10SM CLR 20/12 A3006 RMK AO2
Loading
Personal Weather Stations






























Interactive Weather Map
Tropical Storm Tracking
New forecast layout! Learn more

10-Day Weather Forecast

Advertisements
Track Severe Weather on mobile